Barrytown, New York
Current Conditions -  °F | °C
As of 5:23 AM on Tuesday 27 Jan 2015 (Local Time) from KPOU Reporting Station
Light Snow Light Snow  
Wind Chill:   Ceiling: 3100
Heat Index: 17°   Visibility: 2mi
Dew Point: 10°   Wind: 14mph
Humidity: 74%   Direction: 360°N
Pressure: 29.73"   Gusts: 23mph
Location:  42°N, 73.92°W
Report Text: KPOU 271023Z AUTO 36012G20KT 2SM -SN OVC031 M08/M12 A2973 RMK AO2 P0000 T10831122 TSNO
Loading
Personal Weather Stations






























Interactive Weather Map New forecast layout! Learn more

10-Day Weather Forecast

Advertisements
Track Severe Weather on mobile